createdAt,value
2018-05-31T00:02:22.279Z,11.67
2018-05-31T00:04:48.048Z,11.60
2018-05-31T00:07:13.822Z,11.73
2018-05-31T00:09:39.571Z,12.50
2018-05-31T00:12:05.371Z,13.07
2018-05-31T00:14:31.128Z,12.33
2018-05-31T00:16:56.920Z,12.20
2018-05-31T00:19:22.667Z,11.77
2018-05-31T00:21:48.443Z,13.07
2018-05-31T00:24:14.207Z,11.47
2018-05-31T00:26:39.988Z,12.13
2018-05-31T00:29:05.748Z,12.60
2018-05-31T00:31:31.647Z,12.20
2018-05-31T00:33:57.499Z,13.10
2018-05-31T00:36:23.279Z,10.53
2018-05-31T00:38:49.037Z,12.13
2018-05-31T00:41:14.817Z,11.80
2018-05-31T00:43:40.612Z,11.87
2018-05-31T00:46:06.408Z,12.10
2018-05-31T00:48:32.162Z,12.53
2018-05-31T00:50:57.932Z,11.30
2018-05-31T00:53:23.714Z,12.23
2018-05-31T00:56:01.827Z,11.40
2018-05-31T00:58:27.776Z,12.17
2018-05-31T01:01:08.702Z,12.17
2018-05-31T01:03:34.517Z,11.33
2018-05-31T01:06:00.268Z,11.80
2018-05-31T01:08:26.035Z,11.70
2018-05-31T01:10:51.820Z,13.00
2018-05-31T01:13:17.593Z,12.90
2018-05-31T01:15:43.384Z,12.30
2018-05-31T01:18:09.171Z,12.50
2018-05-31T01:20:34.920Z,11.87
2018-05-31T01:23:00.698Z,11.93
2018-05-31T01:25:26.452Z,11.73
2018-05-31T01:27:52.331Z,12.00
2018-05-31T01:30:18.095Z,11.67
2018-05-31T01:32:43.960Z,13.63
2018-05-31T01:35:09.711Z,12.93
2018-05-31T01:37:35.488Z,12.23
2018-05-31T01:40:01.239Z,13.80
2018-05-31T01:42:27.052Z,13.80
2018-05-31T01:44:52.804Z,13.80
2018-05-31T01:47:18.631Z,14.83
2018-05-31T01:49:44.423Z,13.70
2018-05-31T01:52:10.228Z,13.97
2018-05-31T01:54:36.036Z,15.27
2018-05-31T01:57:01.821Z,15.10
2018-05-31T01:59:27.576Z,17.50
2018-05-31T02:01:53.348Z,17.70
2018-05-31T02:04:19.111Z,15.63
2018-05-31T02:06:44.876Z,15.97
2018-05-31T02:09:10.659Z,16.00
2018-05-31T02:11:36.441Z,16.93
2018-05-31T02:14:02.192Z,16.67
2018-05-31T02:16:28.078Z,15.97
2018-05-31T02:18:53.874Z,17.43
2018-05-31T02:21:19.631Z,16.67
2018-05-31T02:23:45.423Z,15.50
2018-05-31T02:26:11.183Z,15.50
2018-05-31T02:28:37.038Z,15.67
2018-05-31T02:31:02.816Z,15.57
2018-05-31T02:33:28.612Z,16.00
2018-05-31T02:35:54.388Z,15.40
2018-05-31T02:38:20.194Z,15.60
2018-05-31T02:40:45.976Z,14.47
2018-05-31T02:43:11.908Z,15.20
2018-05-31T02:45:37.709Z,13.93
2018-05-31T02:48:03.483Z,14.70
2018-05-31T02:50:29.251Z,14.67
2018-05-31T02:52:55.095Z,15.43
2018-05-31T02:55:20.855Z,14.97
2018-05-31T02:57:46.661Z,15.90
2018-05-31T03:00:12.415Z,14.53
2018-05-31T03:02:38.271Z,14.17
2018-05-31T03:05:04.035Z,14.03
2018-05-31T03:07:29.869Z,13.73
2018-05-31T03:09:55.615Z,14.07
2018-05-31T03:12:21.595Z,13.37
2018-05-31T03:14:47.352Z,14.10
2018-05-31T03:17:13.150Z,13.57
2018-05-31T03:19:38.919Z,14.90
2018-05-31T03:22:04.672Z,14.83
2018-05-31T03:24:30.438Z,15.73
2018-05-31T03:26:56.222Z,14.97
2018-05-31T03:29:21.982Z,14.77
2018-05-31T03:31:48.003Z,15.40
2018-05-31T03:34:13.785Z,14.97
2018-05-31T03:36:39.549Z,15.13
2018-05-31T03:39:05.338Z,15.20
2018-05-31T03:41:31.091Z,15.17
2018-05-31T03:43:56.880Z,15.53
2018-05-31T03:46:22.660Z,15.80
2018-05-31T03:48:48.423Z,15.30
2018-05-31T03:51:14.233Z,15.73
2018-05-31T03:53:40.122Z,14.67
2018-05-31T03:56:05.907Z,15.03
2018-05-31T03:58:31.751Z,14.70
2018-05-31T04:00:57.535Z,14.97
2018-05-31T04:03:23.291Z,14.50
2018-05-31T04:05:49.066Z,14.67
2018-05-31T04:08:14.931Z,13.47
2018-05-31T04:10:40.735Z,14.60
2018-05-31T04:13:06.499Z,13.03
2018-05-31T04:15:32.282Z,12.70
2018-05-31T04:17:58.022Z,12.60
2018-05-31T04:20:23.927Z,12.13
2018-05-31T04:22:49.682Z,11.17
2018-05-31T04:25:15.468Z,13.30
2018-05-31T04:27:41.300Z,13.10
2018-05-31T04:30:07.055Z,12.23
2018-05-31T04:32:32.819Z,11.17
2018-05-31T04:34:58.606Z,11.70
2018-05-31T04:37:24.373Z,11.97
2018-05-31T04:39:50.148Z,12.03
2018-05-31T04:42:15.948Z,11.57
2018-05-31T04:44:41.714Z,11.47
2018-05-31T04:47:07.542Z,12.87
2018-05-31T04:49:33.307Z,12.50
2018-05-31T04:51:59.103Z,11.10
2018-05-31T04:54:24.901Z,11.40
2018-05-31T04:56:50.774Z,11.33
2018-05-31T04:59:16.544Z,10.37
2018-05-31T05:01:42.324Z,11.10
2018-05-31T05:04:08.092Z,9.43
2018-05-31T05:06:33.864Z,9.80
2018-05-31T05:08:59.639Z,9.60
2018-05-31T05:11:25.399Z,9.73
2018-05-31T05:13:51.243Z,10.13
2018-05-31T05:16:17.126Z,9.50
2018-05-31T05:18:42.895Z,9.27
2018-05-31T05:21:08.667Z,12.27
2018-05-31T05:23:34.419Z,10.60
2018-05-31T05:26:00.219Z,12.30
2018-05-31T05:28:25.971Z,10.33
2018-05-31T05:30:51.881Z,12.10
2018-05-31T05:33:17.633Z,11.57
2018-05-31T05:35:43.447Z,11.67
2018-05-31T05:38:09.258Z,10.77
2018-05-31T05:40:35.128Z,10.90
2018-05-31T05:43:01.000Z,14.23
2018-05-31T05:45:26.747Z,15.50
2018-05-31T05:47:52.530Z,14.43
2018-05-31T05:50:18.287Z,12.50
2018-05-31T05:52:44.062Z,11.80
2018-05-31T05:55:09.819Z,14.10
2018-05-31T05:57:35.683Z,12.90
2018-05-31T06:00:01.579Z,12.00
2018-05-31T06:02:27.363Z,14.03
2018-05-31T06:04:53.124Z,15.00
2018-05-31T06:07:18.891Z,15.50
2018-05-31T06:09:44.675Z,14.13
2018-05-31T06:12:10.445Z,14.40
2018-05-31T06:14:36.324Z,15.67
2018-05-31T06:17:02.143Z,15.87
2018-05-31T06:19:27.956Z,16.83
2018-05-31T06:21:53.795Z,15.37
2018-05-31T06:24:19.547Z,14.73
2018-05-31T06:26:45.327Z,14.70
2018-05-31T06:29:11.115Z,12.83
2018-05-31T06:31:36.897Z,15.17
2018-05-31T06:34:02.659Z,15.37
2018-05-31T06:36:28.451Z,14.43
2018-05-31T06:38:54.243Z,14.40
2018-05-31T06:41:20.175Z,13.13
2018-05-31T06:43:46.031Z,13.50
2018-05-31T06:46:11.803Z,13.00
2018-05-31T06:48:37.575Z,15.30
2018-05-31T06:51:03.323Z,14.00
2018-05-31T06:53:29.119Z,13.27
2018-05-31T06:55:54.859Z,15.93
2018-05-31T06:58:20.649Z,16.00
2018-05-31T07:00:46.431Z,15.80
2018-05-31T07:03:12.208Z,15.07
2018-05-31T07:05:38.000Z,15.23
2018-05-31T07:08:03.799Z,18.60
2018-05-31T07:10:29.535Z,15.23
2018-05-31T07:12:55.353Z,17.57
2018-05-31T07:15:21.154Z,18.20
2018-05-31T07:17:46.902Z,16.23
2018-05-31T07:20:12.668Z,16.13
2018-05-31T07:22:38.406Z,17.60
2018-05-31T07:25:04.163Z,16.97
2018-05-31T07:27:30.589Z,17.83
2018-05-31T07:29:56.487Z,17.57
2018-05-31T07:32:22.270Z,15.67
2018-05-31T07:34:48.030Z,14.70
2018-05-31T07:37:13.788Z,17.37
2018-05-31T07:39:39.559Z,16.27
2018-05-31T07:42:05.547Z,14.83
2018-05-31T07:44:31.311Z,17.33
2018-05-31T07:46:57.059Z,16.20
2018-05-31T07:49:22.820Z,16.17
2018-05-31T07:51:48.559Z,14.80
2018-05-31T07:54:14.353Z,16.20
2018-05-31T07:56:40.144Z,16.60
2018-05-31T07:59:06.527Z,15.50
2018-05-31T08:01:32.300Z,15.60
2018-05-31T08:03:58.100Z,14.27
2018-05-31T08:06:24.496Z,16.23
2018-05-31T08:08:50.284Z,13.00
2018-05-31T08:11:16.059Z,14.40
2018-05-31T08:13:41.825Z,14.10
2018-05-31T08:16:07.596Z,14.47
2018-05-31T08:18:33.387Z,14.63
2018-05-31T08:20:59.166Z,14.60
2018-05-31T08:23:24.965Z,15.80
2018-05-31T08:25:50.848Z,15.63
2018-05-31T08:28:16.652Z,15.50
2018-05-31T08:30:42.403Z,14.70
2018-05-31T08:33:08.151Z,13.80
2018-05-31T08:35:33.988Z,14.57
2018-05-31T08:37:59.828Z,15.00
2018-05-31T08:40:25.631Z,14.70
2018-05-31T08:42:51.469Z,14.50
2018-05-31T08:45:17.231Z,16.00
2018-05-31T08:47:42.993Z,13.80
2018-05-31T08:50:08.779Z,13.87
2018-05-31T08:52:34.515Z,13.53
2018-05-31T08:55:00.288Z,16.60
2018-05-31T08:57:26.193Z,14.33
2018-05-31T08:59:51.959Z,13.40
2018-05-31T09:02:17.700Z,13.83
2018-05-31T09:04:43.469Z,13.23
2018-05-31T09:07:09.220Z,14.93
2018-05-31T09:09:34.983Z,15.30
2018-05-31T09:12:00.751Z,14.43
2018-05-31T09:14:26.522Z,15.00
2018-05-31T09:16:52.275Z,14.80
2018-05-31T09:19:18.020Z,14.87
2018-05-31T09:21:43.791Z,13.87
2018-05-31T09:24:09.799Z,14.40
2018-05-31T09:26:35.556Z,15.17
2018-05-31T09:29:01.328Z,16.00
2018-05-31T09:31:27.182Z,14.70
2018-05-31T09:33:52.964Z,14.57
2018-05-31T09:36:18.706Z,15.53
2018-05-31T09:38:44.459Z,14.93
2018-05-31T09:41:10.344Z,15.40
2018-05-31T09:43:36.045Z,15.20
2018-05-31T09:46:01.807Z,15.30
2018-05-31T09:48:27.652Z,13.87
2018-05-31T09:50:53.784Z,15.20
2018-05-31T09:53:19.553Z,14.03
2018-05-31T09:55:45.323Z,13.97
2018-05-31T09:58:11.081Z,14.40
2018-05-31T10:00:36.872Z,14.23
2018-05-31T10:03:02.612Z,16.27
2018-05-31T10:05:28.384Z,15.60
2018-05-31T10:07:54.124Z,15.30
2018-05-31T10:10:19.923Z,17.40
2018-05-31T10:12:45.663Z,15.33
2018-05-31T10:15:11.436Z,14.50
2018-05-31T10:17:37.297Z,14.27
2018-05-31T10:20:03.094Z,15.37
2018-05-31T10:22:28.843Z,14.03
2018-05-31T10:24:54.624Z,15.13
2018-05-31T10:27:20.407Z,14.17
2018-05-31T10:29:46.148Z,13.97
2018-05-31T10:32:11.928Z,12.70
2018-05-31T10:34:37.695Z,12.87
2018-05-31T10:37:03.447Z,13.00
2018-05-31T10:42:01.829Z,13.33
2018-05-31T10:44:27.595Z,13.20
2018-05-31T10:46:53.367Z,12.90
2018-05-31T10:49:19.134Z,12.87
2018-05-31T10:51:44.950Z,13.10
2018-05-31T10:54:10.663Z,13.07
2018-05-31T10:56:36.501Z,12.80
2018-05-31T10:59:02.255Z,12.40
2018-05-31T11:01:28.016Z,13.30
2018-05-31T11:03:53.764Z,12.97
2018-05-31T11:06:19.527Z,13.53
2018-05-31T11:08:45.275Z,12.03
2018-05-31T11:11:11.059Z,11.93
2018-05-31T11:13:36.812Z,12.10
2018-05-31T11:16:02.587Z,11.53
2018-05-31T11:18:28.335Z,11.30
2018-05-31T11:20:54.171Z,11.23
2018-05-31T11:23:19.914Z,10.70
2018-05-31T11:25:45.680Z,10.87
2018-05-31T11:28:11.432Z,9.97
2018-05-31T11:30:37.199Z,10.37
2018-05-31T11:33:02.971Z,10.60
2018-05-31T11:35:28.732Z,11.03
2018-05-31T11:37:54.495Z,10.13
2018-05-31T11:40:20.310Z,11.03
2018-05-31T11:42:46.051Z,12.13
2018-05-31T11:45:11.978Z,10.83
2018-05-31T11:47:37.886Z,11.93
2018-05-31T11:50:03.694Z,12.20
2018-05-31T11:52:29.434Z,12.20
2018-05-31T11:54:55.235Z,13.10
2018-05-31T11:57:21.035Z,12.30
2018-05-31T11:59:46.784Z,13.10
2018-05-31T12:02:12.683Z,12.93
2018-05-31T12:04:38.421Z,13.30
2018-05-31T12:07:04.191Z,13.90
2018-05-31T12:09:29.943Z,13.20
2018-05-31T12:11:55.751Z,12.87
2018-05-31T12:14:21.489Z,12.90
2018-05-31T12:16:47.291Z,13.17
2018-05-31T12:19:13.044Z,12.50
2018-05-31T12:21:38.827Z,12.70
2018-05-31T12:24:04.574Z,13.17
2018-05-31T12:26:30.333Z,12.80
2018-05-31T12:28:56.127Z,12.40
2018-05-31T12:31:21.907Z,12.37
2018-05-31T12:33:47.723Z,10.77
2018-05-31T12:36:13.476Z,12.40
2018-05-31T12:38:39.214Z,11.90
2018-05-31T12:41:04.985Z,12.57
2018-05-31T12:43:30.736Z,10.93
2018-05-31T12:45:56.544Z,11.40
2018-05-31T12:48:22.290Z,10.57
2018-05-31T12:50:48.190Z,10.93
2018-05-31T12:53:14.087Z,11.37
2018-05-31T12:55:39.836Z,11.13
2018-05-31T12:58:05.607Z,11.20
2018-05-31T13:00:31.436Z,10.23
2018-05-31T13:02:57.219Z,12.07
2018-05-31T13:05:22.978Z,10.80
2018-05-31T13:07:48.739Z,10.27
2018-05-31T13:10:14.482Z,11.10
2018-05-31T13:12:40.234Z,9.77
2018-05-31T13:15:05.983Z,10.07
2018-05-31T13:17:31.768Z,10.10
2018-05-31T13:19:57.524Z,11.10
2018-05-31T13:22:23.307Z,9.70
2018-05-31T13:24:49.066Z,9.50
2018-05-31T13:27:14.820Z,9.40
2018-05-31T13:29:40.551Z,10.87
2018-05-31T13:32:06.391Z,10.40
2018-05-31T13:34:32.140Z,10.37
2018-05-31T13:36:57.926Z,9.83
2018-05-31T13:39:23.675Z,10.00
2018-05-31T13:41:49.443Z,9.60
2018-05-31T13:44:15.191Z,10.00
2018-05-31T13:46:40.971Z,9.20
2018-05-31T13:49:06.727Z,8.57
2018-05-31T13:51:32.619Z,9.30
2018-05-31T13:53:58.354Z,8.93
2018-05-31T13:56:24.143Z,9.13
2018-05-31T13:58:49.913Z,9.17
2018-05-31T14:01:15.659Z,9.07
2018-05-31T14:03:41.427Z,8.50
2018-05-31T14:06:07.295Z,9.13
2018-05-31T14:08:33.067Z,8.67
2018-05-31T14:10:58.819Z,9.77
2018-05-31T14:13:24.587Z,9.23
2018-05-31T14:15:50.435Z,9.17
2018-05-31T14:18:16.996Z,9.57
2018-05-31T14:20:42.743Z,8.63
2018-05-31T14:23:08.508Z,8.27
2018-05-31T14:25:34.390Z,9.13
2018-05-31T14:28:00.172Z,8.53
2018-05-31T14:30:25.920Z,8.00
2018-05-31T14:32:51.765Z,8.60
2018-05-31T14:35:17.632Z,9.60
2018-05-31T14:37:43.390Z,9.00
2018-05-31T14:40:09.152Z,8.87
2018-05-31T14:42:34.916Z,9.60
2018-05-31T14:45:00.742Z,10.20
2018-05-31T14:47:26.655Z,9.53
2018-05-31T14:49:52.399Z,10.20
2018-05-31T14:52:18.169Z,10.87
2018-05-31T14:54:43.928Z,9.97
2018-05-31T14:57:09.668Z,9.50
2018-05-31T14:59:35.610Z,10.23
2018-05-31T15:02:01.456Z,9.83
2018-05-31T15:04:27.197Z,10.33
2018-05-31T15:06:52.959Z,9.37
2018-05-31T15:09:18.736Z,9.50
2018-05-31T15:11:44.484Z,10.60
2018-05-31T15:14:10.267Z,10.77
2018-05-31T15:16:36.096Z,9.30
2018-05-31T15:19:01.871Z,9.60
2018-05-31T15:21:27.623Z,9.93
2018-05-31T15:23:53.392Z,9.80
2018-05-31T15:26:19.149Z,10.20
2018-05-31T15:28:44.908Z,9.80
2018-05-31T15:31:10.661Z,9.97
2018-05-31T15:33:36.663Z,8.93
2018-05-31T15:36:02.418Z,9.40
2018-05-31T15:38:28.272Z,9.90
2018-05-31T15:40:54.079Z,9.53
2018-05-31T15:43:19.852Z,9.57
2018-05-31T15:45:45.613Z,9.23
2018-05-31T15:48:11.411Z,9.53
2018-05-31T15:50:37.177Z,9.60
2018-05-31T15:53:02.960Z,9.53
2018-05-31T15:55:28.725Z,10.00
2018-05-31T15:57:54.480Z,10.17
2018-05-31T16:00:20.347Z,9.57
2018-05-31T16:02:46.076Z,8.97
2018-05-31T16:05:11.852Z,9.10
2018-05-31T16:07:37.728Z,9.90
2018-05-31T16:10:03.511Z,9.27
2018-05-31T16:12:29.287Z,8.87
2018-05-31T16:14:55.065Z,9.37
2018-05-31T16:17:20.845Z,9.50
2018-05-31T16:19:46.651Z,8.83
2018-05-31T16:22:12.396Z,8.50
2018-05-31T16:24:38.184Z,8.60
2018-05-31T16:27:03.935Z,8.20
2018-05-31T16:29:29.725Z,8.00
2018-05-31T16:31:55.503Z,7.80
2018-05-31T16:34:21.353Z,8.23
2018-05-31T16:36:47.102Z,8.90
2018-05-31T16:39:12.843Z,8.57
2018-05-31T16:41:38.647Z,9.20
2018-05-31T16:44:04.424Z,8.40
2018-05-31T16:46:30.208Z,8.07
2018-05-31T16:48:56.053Z,8.83
2018-05-31T16:51:21.787Z,9.07
2018-05-31T16:53:47.553Z,8.63
2018-05-31T16:56:13.393Z,9.30
2018-05-31T16:58:39.235Z,9.23
2018-05-31T17:01:05.051Z,9.40
2018-05-31T17:03:30.823Z,8.93
2018-05-31T17:05:56.584Z,8.47
2018-05-31T17:08:22.344Z,8.37
2018-05-31T17:10:48.087Z,8.30
2018-05-31T17:13:13.836Z,8.10
2018-05-31T17:15:39.603Z,9.20
2018-05-31T17:18:05.371Z,10.07
2018-05-31T17:20:31.416Z,9.30
2018-05-31T17:22:57.175Z,8.30
2018-05-31T17:25:22.938Z,8.67
2018-05-31T17:27:48.690Z,9.20
2018-05-31T17:30:14.482Z,8.90
2018-05-31T17:32:40.215Z,9.13
2018-05-31T17:35:05.984Z,9.57
2018-05-31T17:37:31.736Z,9.50
2018-05-31T17:39:57.516Z,8.97
2018-05-31T17:42:23.295Z,8.57
2018-05-31T17:44:49.079Z,8.27
2018-05-31T17:47:14.828Z,8.63
2018-05-31T17:49:40.587Z,9.33
2018-05-31T17:52:06.355Z,8.27
2018-05-31T17:54:32.156Z,8.30
2018-05-31T17:56:58.039Z,8.90
2018-05-31T17:59:26.258Z,8.83
2018-05-31T18:01:52.048Z,8.07
2018-05-31T18:04:17.867Z,8.37
2018-05-31T18:06:43.710Z,7.70
2018-05-31T18:09:09.499Z,7.53
2018-05-31T18:11:35.257Z,7.53
2018-05-31T18:14:01.032Z,7.10
2018-05-31T18:16:26.804Z,7.93
2018-05-31T18:18:52.563Z,7.83
2018-05-31T18:21:18.349Z,6.77
2018-05-31T18:23:44.116Z,7.43
2018-05-31T18:26:09.901Z,8.70
2018-05-31T18:28:35.641Z,7.03
2018-05-31T18:31:01.395Z,6.97
2018-05-31T18:33:27.159Z,7.33
2018-05-31T18:35:52.914Z,8.07
2018-05-31T18:38:18.696Z,7.63
2018-05-31T18:40:44.476Z,7.57
2018-05-31T18:43:10.244Z,7.53
2018-05-31T18:45:35.999Z,7.50
2018-05-31T18:48:01.771Z,7.30
2018-05-31T18:50:27.831Z,7.77
2018-05-31T18:52:53.895Z,8.10
2018-05-31T18:55:19.620Z,7.83
2018-05-31T18:57:45.394Z,7.83
2018-05-31T19:00:11.255Z,6.70
2018-05-31T19:02:37.000Z,8.07
2018-05-31T19:05:02.752Z,7.20
2018-05-31T19:07:28.530Z,7.90
2018-05-31T19:09:54.280Z,7.70
2018-05-31T19:12:26.347Z,7.60
2018-05-31T19:14:52.195Z,6.90
2018-05-31T19:17:18.011Z,6.60
2018-05-31T19:19:50.031Z,6.53
2018-05-31T19:22:15.975Z,6.03
2018-05-31T19:24:47.923Z,7.27
2018-05-31T19:27:13.699Z,6.30
2018-05-31T19:29:39.448Z,7.30
2018-05-31T19:32:05.218Z,6.70
2018-05-31T19:34:31.000Z,6.33
2018-05-31T19:37:02.788Z,7.23
2018-05-31T19:39:28.539Z,7.40
2018-05-31T19:41:54.348Z,7.00
2018-05-31T19:44:26.281Z,6.43
2018-05-31T19:46:52.044Z,6.93
2018-05-31T19:49:17.827Z,6.47
2018-05-31T19:51:49.683Z,7.43
2018-05-31T19:54:15.455Z,5.80
2018-05-31T19:56:41.250Z,7.77
2018-05-31T19:59:13.240Z,6.40
2018-05-31T20:01:45.324Z,7.47
2018-05-31T20:04:11.071Z,6.53
2018-05-31T20:06:36.836Z,7.20
2018-05-31T20:09:02.631Z,6.70
2018-05-31T20:11:28.443Z,7.10
2018-05-31T20:13:54.214Z,6.93
2018-05-31T20:16:20.031Z,6.70
2018-05-31T20:18:45.832Z,7.30
2018-05-31T20:21:11.657Z,6.77
2018-05-31T20:23:37.450Z,6.73
2018-05-31T20:26:03.210Z,6.73
2018-05-31T20:28:29.019Z,7.13
2018-05-31T20:30:54.810Z,7.07
2018-05-31T20:33:20.585Z,7.40
2018-05-31T20:35:46.329Z,7.13
2018-05-31T20:38:12.109Z,6.83
2018-05-31T20:40:37.906Z,6.47
2018-05-31T20:43:03.701Z,6.83
2018-05-31T20:45:44.415Z,7.33
2018-05-31T20:48:10.191Z,6.80
2018-05-31T20:50:35.977Z,6.90
2018-05-31T20:53:01.741Z,6.90
2018-05-31T20:55:27.512Z,6.07
2018-05-31T20:57:53.346Z,7.20
2018-05-31T21:00:19.083Z,6.40
2018-05-31T21:02:44.876Z,7.43
2018-05-31T21:05:10.635Z,6.93
2018-05-31T21:07:36.488Z,5.80
2018-05-31T21:10:02.264Z,7.20
2018-05-31T21:12:28.030Z,5.97
2018-05-31T21:14:53.791Z,6.30
2018-05-31T21:17:19.571Z,7.10
2018-05-31T21:19:45.360Z,6.17
2018-05-31T21:22:11.102Z,6.47
2018-05-31T21:27:31.680Z,6.60
2018-05-31T21:29:57.468Z,6.40
2018-05-31T21:32:23.216Z,6.90
2018-05-31T21:34:49.348Z,6.90
2018-05-31T21:37:15.114Z,6.40
2018-05-31T21:39:40.932Z,6.00
2018-05-31T21:42:06.756Z,6.70
2018-05-31T21:44:32.554Z,6.30
2018-05-31T21:46:58.296Z,6.37
2018-05-31T21:49:24.063Z,7.00
2018-05-31T21:51:49.935Z,6.00
2018-05-31T21:54:15.695Z,6.57
2018-05-31T21:56:41.515Z,6.57
2018-05-31T21:59:07.299Z,6.37
2018-05-31T22:01:33.054Z,6.97
2018-05-31T22:03:58.807Z,5.90
2018-05-31T22:06:24.647Z,6.17
2018-05-31T22:08:50.411Z,6.47
2018-05-31T22:11:16.182Z,6.03
2018-05-31T22:13:41.956Z,6.33
2018-05-31T22:16:07.723Z,6.37
2018-05-31T22:18:33.507Z,6.20
2018-05-31T22:20:59.253Z,6.80
2018-05-31T22:23:25.104Z,5.13
2018-05-31T22:25:50.843Z,6.37
2018-05-31T22:28:16.952Z,6.67
2018-05-31T22:30:42.723Z,6.67
2018-05-31T22:33:08.577Z,6.70
2018-05-31T22:35:34.364Z,7.13
2018-05-31T22:38:00.119Z,5.70
2018-05-31T22:40:25.870Z,6.80
2018-05-31T22:42:51.627Z,6.20
2018-05-31T22:45:17.375Z,6.17
2018-05-31T22:47:43.165Z,6.13
2018-05-31T22:50:09.087Z,6.13
2018-05-31T22:52:34.876Z,5.83
2018-05-31T22:55:00.627Z,6.13
2018-05-31T22:57:26.379Z,6.50
2018-05-31T22:59:52.277Z,5.93
2018-05-31T23:02:18.036Z,6.77
2018-05-31T23:04:43.790Z,5.80
2018-05-31T23:07:09.820Z,6.23
2018-05-31T23:09:35.568Z,5.93
2018-05-31T23:12:01.447Z,5.87
2018-05-31T23:14:27.204Z,7.00
2018-05-31T23:16:52.951Z,6.77
2018-05-31T23:19:18.747Z,6.60
2018-05-31T23:21:44.507Z,6.13
2018-05-31T23:24:10.260Z,5.93
2018-05-31T23:26:36.057Z,5.93
2018-05-31T23:29:02.012Z,5.83
2018-05-31T23:31:27.787Z,6.90
2018-05-31T23:33:53.678Z,5.53
2018-05-31T23:36:19.437Z,5.43
2018-05-31T23:38:45.204Z,6.20
2018-05-31T23:41:10.990Z,5.93
2018-05-31T23:43:36.739Z,5.70
2018-05-31T23:46:02.507Z,6.90
2018-05-31T23:48:28.304Z,6.07
2018-05-31T23:50:54.055Z,6.20
2018-05-31T23:53:19.823Z,5.47
2018-05-31T23:55:45.579Z,5.03
2018-05-31T23:58:11.414Z,5.50
